Time;durP1;ratioP1;P1;durP2;ratioP2;P2;SDS_P1;SDS_P2;PMS_P1;PMS_P2;Temp;Humidity;BMP_temperature;BMP_pressure;BME280_temperature;BME280_humidity;BME280_pressure;Samples;Min_cycle;Max_cycle;Signal;HPM_P1;HPM_P2
2021/07/29 00:00:38;;;;;;;3.42;0.52;;;16.20;99.90;;;;;;5079312;28;20036;-69
2021/07/29 00:03:05;;;;;;;8.38;1.60;;;16.10;99.90;;;;;;5080491;28;20043;-70
2021/07/29 00:05:33;;;;;;;1.88;0.47;;;16.10;99.90;;;;;;5077320;28;20044;-70
2021/07/29 00:07:58;;;;;;;7.47;0.73;;;16.10;99.90;;;;;;5055235;28;20045;-70
2021/07/29 00:10:27;;;;;;;11.32;1.40;;;16.10;99.90;;;;;;5079838;28;20085;-70
2021/07/29 00:12:53;;;;;;;10.10;1.23;;;16.10;99.90;;;;;;5077741;28;20104;-70
2021/07/29 00:15:18;;;;;;;3.38;0.50;;;16.10;99.90;;;;;;5079134;28;20090;-70
2021/07/29 00:20:22;;;;;;;3.70;0.50;;;15.70;99.90;;;;;;5076733;28;20028;-71
2021/07/29 00:22:53;;;;;;;0.88;0.17;;;15.50;99.90;;;;;;5061912;28;20318;-70
2021/07/29 00:25:22;;;;;;;2.72;0.38;;;15.30;99.90;;;;;;5059044;28;20039;-70
2021/07/29 00:27:49;;;;;;;1.40;0.53;;;15.10;99.90;;;;;;5060672;28;20124;-70
2021/07/29 00:30:16;;;;;;;2.58;0.20;;;15.00;99.90;;;;;;5077327;28;20038;-71
2021/07/29 00:32:44;;;;;;;3.53;0.38;;;15.00;99.90;;;;;;5077903;28;20037;-70
2021/07/29 00:35:14;;;;;;;3.08;0.50;;;14.80;99.90;;;;;;5078987;28;20036;-70
2021/07/29 00:37:44;;;;;;;3.55;1.10;;;14.80;99.90;;;;;;5056287;28;20036;-70
2021/07/29 00:40:10;;;;;;;;;;;14.80;99.90;;;;;;5079878;28;20120;-70
2021/07/29 00:42:36;;;;;;;2.78;0.50;;;14.70;99.90;;;;;;5078210;28;20003;-70
2021/07/29 00:45:01;;;;;;;1.35;0.40;;;14.70;99.90;;;;;;5077110;28;20040;-70
2021/07/29 00:47:28;;;;;;;2.75;0.40;;;14.60;99.90;;;;;;5079104;28;20040;-71
2021/07/29 00:49:54;;;;;;;4.18;1.00;;;14.60;99.90;;;;;;5076449;28;20032;-70
2021/07/29 00:52:23;;;;;;;5.32;0.68;;;14.60;99.90;;;;;;5074151;28;20381;-70
2021/07/29 00:54:50;;;;;;;5.40;0.93;;;14.60;99.90;;;;;;5058132;28;20056;-70
2021/07/29 00:57:16;;;;;;;4.70;0.70;;;14.60;99.90;;;;;;5060268;28;20063;-70
2021/07/29 00:59:42;;;;;;;6.60;0.68;;;14.50;99.90;;;;;;5077710;28;20048;-70
2021/07/29 01:02:08;;;;;;;4.55;0.80;;;14.50;99.90;;;;;;5059644;28;20090;-70
2021/07/29 01:04:34;;;;;;;4.47;0.80;;;14.50;99.90;;;;;;5078812;28;20040;-70
2021/07/29 01:06:59;;;;;;;2.72;0.50;;;14.50;99.90;;;;;;5062419;28;20046;-70
2021/07/29 01:09:25;;;;;;;6.38;1.20;;;14.50;99.90;;;;;;5079983;28;20051;-70
2021/07/29 01:11:51;;;;;;;2.05;0.90;;;14.50;99.90;;;;;;5079578;28;20643;-70
2021/07/29 01:14:17;;;;;;;4.10;0.90;;;14.50;99.90;;;;;;5081194;28;20078;-70
2021/07/29 01:16:43;;;;;;;7.28;1.02;;;14.50;99.90;;;;;;5080329;28;20514;-71
2021/07/29 01:19:10;;;;;;;4.70;1.33;;;14.50;99.90;;;;;;5063351;28;20040;-70
2021/07/29 01:21:36;;;;;;;9.73;2.78;;;14.50;99.90;;;;;;5063477;28;20036;-71
2021/07/29 01:24:03;;;;;;;8.80;1.33;;;14.50;99.90;;;;;;5054101;28;20093;-71
2021/07/29 01:26:28;;;;;;;10.80;1.55;;;14.50;99.90;;;;;;5083033;28;20074;-70
2021/07/29 01:28:55;;;;;;;8.38;1.95;;;14.60;99.90;;;;;;5079789;28;20489;-71
2021/07/29 01:31:21;;;;;;;10.35;1.25;;;14.60;99.90;;;;;;5083282;28;20404;-70
2021/07/29 01:33:47;;;;;;;13.85;1.45;;;14.70;99.90;;;;;;5079523;28;20041;-71
2021/07/29 01:36:12;;;;;;;14.30;1.42;;;14.70;99.90;;;;;;5082122;28;20075;-70
2021/07/29 01:38:38;;;;;;;6.35;1.48;;;14.80;99.90;;;;;;5081232;28;20114;-70
2021/07/29 01:41:04;;;;;;;3.42;1.38;;;14.90;99.90;;;;;;5082171;28;20036;-71
2021/07/29 01:43:30;;;;;;;13.63;1.90;;;14.90;99.90;;;;;;5069039;28;20036;-71
2021/07/29 01:45:56;;;;;;;11.50;1.80;;;15.00;99.90;;;;;;5070270;28;20028;-69
2021/07/29 01:48:21;;;;;;;13.88;2.17;;;15.00;99.90;;;;;;5087058;28;20066;-69
2021/07/29 01:50:47;;;;;;;11.80;2.05;;;14.80;99.90;;;;;;5061054;28;20037;-70
2021/07/29 01:53:13;;;;;;;12.80;1.70;;;14.80;99.90;;;;;;5081250;28;20064;-70
2021/07/29 01:55:43;;;;;;;12.55;1.92;;;14.70;99.90;;;;;;5080298;28;20051;-70
2021/07/29 01:58:09;;;;;;;6.45;1.75;;;14.60;99.90;;;;;;5080360;28;20074;-71
2021/07/29 02:00:36;;;;;;;8.90;1.70;;;14.60;99.90;;;;;;5080928;28;20027;-70
2021/07/29 02:03:03;;;;;;;14.20;1.75;;;14.50;99.90;;;;;;5078719;28;20045;-70
2021/07/29 02:05:29;;;;;;;17.90;3.08;;;14.50;99.90;;;;;;5081923;28;20059;-70
2021/07/29 02:07:55;;;;;;;12.70;1.60;;;14.50;99.90;;;;;;5078449;28;20024;-71
2021/07/29 02:10:21;;;;;;;11.80;2.33;;;14.50;99.90;;;;;;5064255;28;20052;-71
2021/07/29 02:12:46;;;;;;;14.80;1.85;;;14.60;99.90;;;;;;5059983;28;20051;-71
2021/07/29 02:15:12;;;;;;;13.93;1.73;;;14.60;99.90;;;;;;5077852;28;20032;-70
2021/07/29 02:17:38;;;;;;;10.85;1.75;;;14.60;99.90;;;;;;5061523;28;20029;-70
2021/07/29 02:20:04;;;;;;;11.75;1.65;;;14.60;99.90;;;;;;5080293;28;20495;-70
2021/07/29 02:22:30;;;;;;;20.35;1.80;;;14.60;99.90;;;;;;5061453;28;20068;-71
2021/07/29 02:24:56;;;;;;;12.60;1.45;;;14.60;99.90;;;;;;5062823;28;20085;-70
2021/07/29 02:27:23;;;;;;;8.20;1.30;;;14.60;99.90;;;;;;5060272;28;20158;-70
2021/07/29 02:29:50;;;;;;;9.52;1.83;;;14.60;99.90;;;;;;5074412;28;20040;-71
2021/07/29 02:32:15;;;;;;;6.63;1.00;;;14.50;99.90;;;;;;5063236;28;20043;-71
2021/07/29 02:34:41;;;;;;;15.85;2.10;;;14.50;99.90;;;;;;5081645;28;20037;-73
2021/07/29 02:37:06;;;;;;;6.90;1.13;;;14.50;99.90;;;;;;5061211;28;20038;-71
2021/07/29 02:39:32;;;;;;;5.65;1.33;;;14.40;99.90;;;;;;5079250;28;20573;-71
2021/07/29 02:41:57;;;;;;;10.10;1.42;;;14.40;99.90;;;;;;5080409;28;20032;-71
2021/07/29 02:44:23;;;;;;;5.07;0.95;;;14.40;99.90;;;;;;5078277;28;20067;-71
2021/07/29 02:46:49;;;;;;;5.05;1.20;;;14.30;99.90;;;;;;5081424;28;20032;-71
2021/07/29 02:49:14;;;;;;;11.15;2.25;;;14.20;99.90;;;;;;5077324;28;20047;-71
2021/07/29 02:51:40;;;;;;;6.88;1.83;;;14.10;99.90;;;;;;5079443;28;20438;-71
2021/07/29 02:54:05;;;;;;;6.30;1.00;;;14.20;99.90;;;;;;5078964;28;20028;-71
2021/07/29 02:56:31;;;;;;;8.65;1.45;;;14.10;99.90;;;;;;5077902;28;20450;-71
2021/07/29 02:58:56;;;;;;;7.30;1.60;;;14.10;99.90;;;;;;5077401;28;20089;-72
2021/07/29 03:01:22;;;;;;;6.55;1.15;;;14.00;99.90;;;;;;5083271;28;20067;-71
2021/07/29 03:03:47;;;;;;;8.95;1.27;;;14.00;99.90;;;;;;5077819;28;20128;-71
2021/07/29 03:06:13;;;;;;;7.65;1.25;;;14.00;99.90;;;;;;5085642;28;20036;-71
2021/07/29 03:08:39;;;;;;;12.57;2.58;;;14.00;99.90;;;;;;5072193;28;20036;-71
2021/07/29 03:11:04;;;;;;;12.35;1.90;;;14.00;99.90;;;;;;5087142;28;20032;-71
2021/07/29 03:13:30;;;;;;;4.75;1.58;;;14.00;99.90;;;;;;5069643;28;20484;-71
2021/07/29 03:15:55;;;;;;;5.22;2.03;;;13.90;99.90;;;;;;5068322;28;20481;-71
2021/07/29 03:18:21;;;;;;;7.57;2.00;;;13.90;99.90;;;;;;5085313;28;20039;-71
2021/07/29 03:20:47;;;;;;;12.68;2.00;;;13.90;99.90;;;;;;5077664;28;20040;-71
2021/07/29 03:23:13;;;;;;;11.60;2.40;;;14.00;99.90;;;;;;5081081;28;20720;-71
2021/07/29 03:25:39;;;;;;;10.02;1.67;;;13.90;99.90;;;;;;5081548;28;20503;-71
2021/07/29 03:28:05;;;;;;;15.45;1.90;;;14.00;99.90;;;;;;5080877;28;20024;-71
2021/07/29 03:30:31;;;;;;;6.75;1.58;;;13.90;99.90;;;;;;5083554;28;20055;-71
2021/07/29 03:32:57;;;;;;;10.20;2.20;;;13.90;99.90;;;;;;5059482;28;20036;-71
2021/07/29 03:35:22;;;;;;;8.52;1.65;;;13.90;99.90;;;;;;5085652;28;20044;-71
2021/07/29 03:37:48;;;;;;;11.68;1.38;;;13.90;99.90;;;;;;5081037;28;20020;-70
2021/07/29 03:40:14;;;;;;;7.90;1.73;;;13.90;99.90;;;;;;5072099;28;20028;-72
2021/07/29 03:42:40;;;;;;;4.60;1.70;;;13.90;99.90;;;;;;5085225;28;20024;-70
2021/07/29 03:45:05;;;;;;;10.00;1.50;;;13.80;99.90;;;;;;5086462;28;20061;-71
2021/07/29 03:47:31;;;;;;;11.15;1.42;;;13.80;99.90;;;;;;5074863;28;20027;-71
2021/07/29 03:49:57;;;;;;;11.25;1.40;;;13.70;99.90;;;;;;5079211;28;20067;-70
2021/07/29 03:52:22;;;;;;;6.28;1.20;;;13.80;99.90;;;;;;5077536;28;20052;-70
2021/07/29 03:54:50;;;;;;;12.05;1.30;;;13.70;99.90;;;;;;5076689;28;20086;-70
2021/07/29 03:57:16;;;;;;;6.68;1.10;;;13.70;99.90;;;;;;5037891;28;20044;-70
2021/07/29 03:59:41;;;;;;;9.52;1.15;;;13.70;99.90;;;;;;5084601;28;20044;-70
2021/07/29 04:02:10;;;;;;;5.07;1.50;;;13.70;99.90;;;;;;5071727;28;20028;-71
2021/07/29 04:04:40;;;;;;;8.82;1.08;;;13.70;99.90;;;;;;5068227;28;20085;-70
2021/07/29 04:07:06;;;;;;;4.45;1.00;;;13.70;99.90;;;;;;5072819;28;20124;-71
2021/07/29 04:09:33;;;;;;;7.65;1.23;;;13.80;99.90;;;;;;5050497;28;20036;-70
2021/07/29 04:11:59;;;;;;;11.90;2.15;;;13.70;99.90;;;;;;5076699;28;20434;-70
2021/07/29 04:14:25;;;;;;;10.40;1.70;;;13.80;99.90;;;;;;5086311;28;20032;-70
2021/07/29 04:16:54;;;;;;;10.20;1.55;;;13.80;99.90;;;;;;5071759;28;20036;-70
2021/07/29 04:19:21;;;;;;;13.20;1.92;;;13.80;99.90;;;;;;5067303;28;20033;-71
2021/07/29 04:21:46;;;;;;;8.93;1.50;;;13.80;99.90;;;;;;5058569;28;20082;-71
2021/07/29 04:24:12;;;;;;;12.25;1.83;;;13.90;99.90;;;;;;5084299;28;20058;-70
2021/07/29 04:26:40;;;;;;;15.30;1.75;;;13.90;99.90;;;;;;5054383;28;20435;-70
2021/07/29 04:29:06;;;;;;;8.88;1.58;;;14.00;99.90;;;;;;5068931;28;20035;-70
2021/07/29 04:31:31;;;;;;;11.45;2.33;;;14.00;99.90;;;;;;5055708;28;20496;-70
2021/07/29 04:33:57;;;;;;;16.17;1.83;;;14.10;99.90;;;;;;5076743;28;20044;-70
2021/07/29 04:36:22;;;;;;;12.82;3.05;;;14.10;99.90;;;;;;5076550;28;20025;-70
2021/07/29 04:38:48;;;;;;;22.83;2.53;;;14.20;99.90;;;;;;5075906;28;20481;-71
2021/07/29 04:41:14;;;;;;;9.98;2.05;;;14.10;99.90;;;;;;5071635;28;20055;-71
2021/07/29 04:43:39;;;;;;;14.05;1.92;;;14.10;99.90;;;;;;5073092;28;20125;-70
2021/07/29 04:46:05;;;;;;;11.25;2.05;;;14.10;99.90;;;;;;5071830;28;20055;-70
2021/07/29 04:48:31;;;;;;;9.63;1.95;;;14.10;99.90;;;;;;5082996;28;20108;-70
2021/07/29 04:51:03;;;;;;;9.52;1.50;;;14.10;99.90;;;;;;5077351;28;20051;-71
2021/07/29 04:53:30;;;;;;;12.00;1.65;;;14.10;99.90;;;;;;5075087;28;20059;-70
2021/07/29 04:55:55;;;;;;;16.67;2.03;;;14.10;99.90;;;;;;5064546;28;20123;-70
2021/07/29 04:58:21;;;;;;;10.40;2.13;;;14.10;99.90;;;;;;5085396;28;20115;-72
2021/07/29 05:00:47;;;;;;;9.75;1.80;;;14.20;99.90;;;;;;5063276;28;20035;-71
2021/07/29 05:03:12;;;;;;;8.93;1.80;;;14.30;99.90;;;;;;5074425;28;20348;-71
2021/07/29 05:05:38;;;;;;;6.75;1.52;;;14.30;99.90;;;;;;5078690;28;20036;-70
2021/07/29 05:08:04;;;;;;;4.90;1.30;;;14.30;99.90;;;;;;5083526;28;20460;-70
2021/07/29 05:10:29;;;;;;;19.55;2.33;;;14.30;99.90;;;;;;5068672;28;20040;-70
2021/07/29 05:12:55;;;;;;;16.88;2.00;;;14.20;99.90;;;;;;5086323;28;20176;-70
2021/07/29 05:15:21;;;;;;;13.45;2.97;;;14.30;99.90;;;;;;5090333;28;20044;-72
2021/07/29 05:17:54;;;;;;;9.95;1.42;;;14.30;99.90;;;;;;5079246;28;20031;-72
2021/07/29 05:20:20;;;;;;;10.30;1.80;;;14.30;99.90;;;;;;5077672;28;20385;-71
2021/07/29 05:22:45;;;;;;;11.18;1.58;;;14.40;99.90;;;;;;5064358;28;20103;-72
2021/07/29 05:25:11;;;;;;;14.70;1.83;;;14.40;99.90;;;;;;5087860;28;20039;-72
2021/07/29 05:27:36;;;;;;;10.88;1.50;;;14.40;99.90;;;;;;5087347;28;20119;-72
2021/07/29 05:30:02;;;;;;;12.15;1.85;;;14.50;99.90;;;;;;5089740;28;20036;-71
2021/07/29 05:32:28;;;;;;;14.32;2.13;;;14.60;99.90;;;;;;5064397;28;20062;-72
2021/07/29 05:34:53;;;;;;;5.32;1.20;;;14.60;99.90;;;;;;5088249;28;20531;-72
2021/07/29 05:37:19;;;;;;;8.27;1.00;;;14.70;99.90;;;;;;5087126;28;20039;-72
2021/07/29 05:39:45;;;;;;;10.20;1.90;;;14.70;99.90;;;;;;5064133;28;20044;-72
2021/07/29 05:42:10;;;;;;;9.15;1.05;;;14.80;99.90;;;;;;5069906;28;20036;-71
2021/07/29 05:44:36;;;;;;;12.45;1.10;;;14.90;99.90;;;;;;5089297;28;20450;-72
2021/07/29 05:47:02;;;;;;;10.23;1.67;;;15.00;99.90;;;;;;5064872;28;20112;-72
2021/07/29 05:49:28;;;;;;;10.48;0.88;;;15.20;99.90;;;;;;5088682;28;20563;-71
2021/07/29 05:51:53;;;;;;;5.78;1.50;;;15.30;99.90;;;;;;5079859;28;20032;-73
2021/07/29 05:54:19;;;;;;;7.35;1.10;;;15.40;99.90;;;;;;5089410;28;20507;-72
2021/07/29 05:56:46;;;;;;;5.35;0.85;;;15.50;99.90;;;;;;5080639;28;20028;-72
2021/07/29 05:59:12;;;;;;;7.72;0.95;;;15.60;99.90;;;;;;5092482;28;20028;-72
2021/07/29 06:01:37;;;;;;;7.07;1.05;;;15.70;99.90;;;;;;5088580;28;20051;-71
2021/07/29 06:04:03;;;;;;;10.95;1.27;;;15.60;99.90;;;;;;5089312;28;20131;-72
2021/07/29 06:06:29;;;;;;;9.48;1.30;;;15.70;99.90;;;;;;5064715;28;20024;-71
2021/07/29 06:08:57;;;;;;;11.68;1.60;;;15.80;99.90;;;;;;5087421;28;20043;-72
2021/07/29 06:11:24;;;;;;;14.38;1.98;;;15.90;99.90;;;;;;5058446;28;20057;-72
2021/07/29 06:13:49;;;;;;;8.77;1.40;;;16.00;99.90;;;;;;5086968;28;20032;-72
2021/07/29 06:16:17;;;;;;;10.80;1.98;;;16.20;99.90;;;;;;5071925;28;20039;-72
2021/07/29 06:18:52;;;;;;;9.75;1.25;;;16.30;99.90;;;;;;5068721;28;20626;-72
2021/07/29 06:21:18;;;;;;;8.38;1.70;;;16.40;99.90;;;;;;5071092;28;20031;-71
2021/07/29 06:23:43;;;;;;;9.13;1.85;;;16.40;99.90;;;;;;5069539;28;20036;-73
2021/07/29 06:26:10;;;;;;;12.02;1.80;;;16.60;99.90;;;;;;5090478;28;20032;-71
2021/07/29 06:28:36;;;;;;;16.70;2.08;;;16.70;99.90;;;;;;5066255;28;20568;-72
2021/07/29 06:31:02;;;;;;;10.55;1.60;;;16.70;99.90;;;;;;5065918;28;20028;-71
2021/07/29 06:33:27;;;;;;;8.90;1.50;;;16.90;99.90;;;;;;5086744;28;20070;-71
2021/07/29 06:35:53;;;;;;;8.57;2.20;;;17.00;99.90;;;;;;5084758;28;20411;-72
2021/07/29 06:38:18;;;;;;;10.00;1.40;;;17.10;99.90;;;;;;5087626;28;20403;-72
2021/07/29 06:40:44;;;;;;;10.45;1.30;;;17.20;99.90;;;;;;5085653;28;20467;-73
2021/07/29 06:43:09;;;;;;;11.57;1.58;;;17.30;99.90;;;;;;5067302;28;20094;-71
2021/07/29 06:45:35;;;;;;;11.02;2.03;;;17.50;99.90;;;;;;5070561;28;20061;-72
2021/07/29 06:48:00;;;;;;;5.75;0.90;;;17.50;99.90;;;;;;5066737;28;20416;-74
2021/07/29 06:50:26;;;;;;;7.28;1.27;;;17.70;99.90;;;;;;5086738;28;20032;-72
2021/07/29 06:52:52;;;;;;;6.05;1.75;;;17.90;99.90;;;;;;5084802;28;20028;-72
2021/07/29 06:55:17;;;;;;;4.80;1.83;;;18.30;99.90;;;;;;5087705;28;20114;-72
2021/07/29 06:57:43;;;;;;;5.80;0.90;;;18.70;99.90;;;;;;5066795;28;20063;-72
2021/07/29 07:00:09;;;;;;;8.70;1.15;;;19.30;99.90;;;;;;5083685;28;20083;-72
2021/07/29 07:02:34;;;;;;;11.35;2.03;;;19.50;99.90;;;;;;5062890;28;20081;-72
2021/07/29 07:05:00;;;;;;;8.70;1.23;;;19.60;99.90;;;;;;5078474;28;20036;-71
2021/07/29 07:07:26;;;;;;;7.13;1.40;;;19.90;99.90;;;;;;5066036;28;20107;-72
2021/07/29 07:09:51;;;;;;;8.23;1.20;;;20.50;99.90;;;;;;5086995;28;20446;-72
2021/07/29 07:12:17;;;;;;;17.38;2.00;;;20.70;99.90;;;;;;5084139;28;20075;-72
2021/07/29 07:14:42;;;;;;;7.70;1.65;;;20.30;99.90;;;;;;5085198;28;20064;-72
2021/07/29 07:17:08;;;;;;;10.45;1.05;;;19.80;99.90;;;;;;5082562;28;20043;-72
2021/07/29 07:19:34;;;;;;;8.65;1.23;;;19.40;99.90;;;;;;5086438;28;20040;-72
2021/07/29 07:22:01;;;;;;;7.03;1.60;;;19.40;99.90;;;;;;5083994;28;20032;-72
2021/07/29 07:24:27;;;;;;;5.97;0.88;;;19.10;99.90;;;;;;5084995;28;20042;-71
2021/07/29 07:26:53;;;;;;;6.57;1.00;;;18.80;99.90;;;;;;5087571;28;20032;-72
2021/07/29 07:29:18;;;;;;;7.43;1.08;;;18.50;99.90;;;;;;5069306;28;20039;-72
2021/07/29 07:31:44;;;;;;;7.30;1.05;;;18.30;99.90;;;;;;5085194;28;20051;-72
2021/07/29 07:34:09;;;;;;;3.88;1.67;;;18.00;99.90;;;;;;5086195;28;20062;-72
2021/07/29 07:36:35;;;;;;;12.40;1.30;;;18.00;99.90;;;;;;5078907;28;20040;-72
2021/07/29 07:39:00;;;;;;;8.13;1.65;;;17.70;99.90;;;;;;5082696;28;20052;-72
2021/07/29 07:41:26;;;;;;;5.47;1.30;;;17.50;99.90;;;;;;5083142;28;20480;-71
2021/07/29 07:43:51;;;;;;;9.98;1.10;;;17.50;99.90;;;;;;5062261;28;20051;-72
2021/07/29 07:46:17;;;;;;;7.35;1.30;;;17.50;99.90;;;;;;5084694;28;20466;-71
2021/07/29 07:48:43;;;;;;;6.10;1.75;;;17.30;99.90;;;;;;5069747;28;20032;-72
2021/07/29 07:51:09;;;;;;;9.60;1.52;;;17.30;99.90;;;;;;5087162;28;20042;-72
2021/07/29 07:53:34;;;;;;;6.57;1.27;;;17.40;99.90;;;;;;5068414;28;20035;-72
2021/07/29 07:56:05;;;;;;;6.47;1.20;;;18.60;99.90;;;;;;5078695;28;20036;-71
2021/07/29 07:58:30;;;;;;;;;;;19.50;99.90;;;;;;5081508;28;20032;-72
2021/07/29 08:00:56;;;;;;;6.18;1.25;;;19.80;99.90;;;;;;5076413;28;20004;-72
2021/07/29 08:03:22;;;;;;;9.73;1.25;;;20.40;99.90;;;;;;5081392;28;20032;-71
2021/07/29 08:05:47;;;;;;;3.15;0.80;;;21.40;99.90;;;;;;5086776;28;20559;-72
2021/07/29 08:08:13;;;;;;;7.78;1.30;;;22.40;99.90;;;;;;5084886;28;20040;-71
2021/07/29 08:10:40;;;;;;;3.80;0.82;;;23.50;99.90;;;;;;5056929;28;20070;-71
2021/07/29 08:13:06;;;;;;;5.53;1.00;;;24.40;99.90;;;;;;5078621;28;20511;-72
2021/07/29 08:15:33;;;;;;;6.63;1.23;;;24.90;99.10;;;;;;5062339;28;20024;-72
2021/07/29 08:17:59;;;;;;;6.25;1.08;;;25.00;97.90;;;;;;5083291;28;20036;-72
2021/07/29 08:20:25;;;;;;;5.85;0.93;;;25.30;94.80;;;;;;5082410;28;20024;-70
2021/07/29 08:22:55;;;;;;;3.60;1.23;;;25.90;94.60;;;;;;5065890;28;20043;-71
2021/07/29 08:25:22;;;;;;;4.55;1.00;;;25.70;92.00;;;;;;5085655;28;20036;-72
2021/07/29 08:27:48;;;;;;;4.10;0.85;;;25.40;93.50;;;;;;5084544;28;20077;-71
2021/07/29 08:30:15;;;;;;;2.47;0.90;;;24.90;92.20;;;;;;5082429;28;20028;-72
2021/07/29 08:32:42;;;;;;;6.30;1.55;;;24.70;93.80;;;;;;5061565;28;20044;-72
2021/07/29 08:35:08;;;;;;;8.30;1.15;;;24.80;93.90;;;;;;5085826;28;20122;-72
2021/07/29 08:37:33;;;;;;;4.70;1.20;;;24.60;94.90;;;;;;5083296;28;20044;-72
2021/07/29 08:39:59;;;;;;;3.00;0.70;;;24.40;94.90;;;;;;5061768;28;20036;-71
2021/07/29 08:42:26;;;;;;;3.92;0.50;;;24.20;94.80;;;;;;5063912;28;20043;-71
2021/07/29 08:44:52;;;;;;;6.97;1.08;;;23.90;94.40;;;;;;5083797;28;20040;-71
2021/07/29 08:47:24;;;;;;;4.43;0.73;;;23.40;94.70;;;;;;5064398;28;20073;-71
2021/07/29 08:49:54;;;;;;;5.78;0.95;;;23.20;93.70;;;;;;5067064;28;20028;-72
2021/07/29 08:52:19;;;;;;;;;;;22.60;93.50;;;;;;5083529;28;20131;-72
2021/07/29 08:54:47;;;;;;;3.83;0.75;;;22.20;95.00;;;;;;5084370;28;20015;-71
2021/07/29 08:57:17;;;;;;;6.25;0.88;;;22.20;95.10;;;;;;5064789;28;20043;-72
2021/07/29 08:59:42;;;;;;;7.72;1.15;;;21.90;93.20;;;;;;5066498;28;20036;-72
2021/07/29 09:02:24;;;;;;;7.00;0.65;;;21.90;94.30;;;;;;5083193;28;20039;-72
2021/07/29 09:05:17;;;;;;;3.55;0.43;;;21.80;95.10;;;;;;5052628;28;20051;-71
2021/07/29 09:07:44;;;;;;;2.78;0.60;;;21.50;94.30;;;;;;5066016;28;20036;-71
2021/07/29 09:10:24;;;;;;;4.60;0.55;;;21.10;93.40;;;;;;5084868;28;20050;-72
2021/07/29 09:13:16;;;;;;;7.07;0.57;;;20.80;92.10;;;;;;5084406;28;20028;-72
2021/07/29 09:15:43;;;;;;;3.45;0.85;;;20.80;93.30;;;;;;5080488;28;20027;-71
2021/07/29 09:18:09;;;;;;;2.63;0.40;;;20.80;94.00;;;;;;5086260;28;20063;-71
2021/07/29 09:20:36;;;;;;;2.22;0.80;;;20.70;93.70;;;;;;5060012;28;20052;-71
2021/07/29 09:23:21;;;;;;;2.45;0.80;;;20.70;93.90;;;;;;5085935;28;20047;-72
2021/07/29 09:26:00;;;;;;;4.75;0.32;;;20.60;95.10;;;;;;5086900;28;20189;-73
2021/07/29 09:28:39;;;;;;;7.30;1.00;;;20.70;93.10;;;;;;5064940;28;20036;-71
2021/07/29 09:31:19;;;;;;;5.00;0.68;;;21.00;93.60;;;;;;5084516;28;20040;-70
2021/07/29 09:33:55;;;;;;;7.85;0.52;;;21.30;93.30;;;;;;5085393;28;20035;-72
2021/07/29 09:36:20;;;;;;;4.88;0.60;;;21.60;93.80;;;;;;5063038;28;20060;-72
2021/07/29 09:38:46;;;;;;;13.57;0.85;;;21.70;93.30;;;;;;5057845;28;20528;-71
2021/07/29 09:41:27;;;;;;;11.02;1.23;;;21.70;93.10;;;;;;5064771;28;20040;-71
2021/07/29 09:43:54;;;;;;;3.60;0.52;;;21.80;93.20;;;;;;5061178;28;20047;-71
2021/07/29 09:46:21;;;;;;;2.88;0.98;;;21.80;93.10;;;;;;5082626;28;20032;-70
2021/07/29 09:48:49;;;;;;;3.53;0.63;;;21.90;92.10;;;;;;5084106;28;20513;-71
2021/07/29 09:51:15;;;;;;;2.25;0.50;;;22.00;92.20;;;;;;5075802;28;20122;-71
2021/07/29 09:53:41;;;;;;;3.45;0.70;;;22.00;91.60;;;;;;5085492;28;20051;-71
2021/07/29 09:56:11;;;;;;;7.32;0.93;;;21.90;92.80;;;;;;5084319;28;20032;-71
2021/07/29 09:58:39;;;;;;;4.60;0.40;;;21.80;92.50;;;;;;5084338;28;20043;-72
2021/07/29 10:01:06;;;;;;;6.68;0.75;;;21.80;92.00;;;;;;5080833;28;20029;-72
2021/07/29 10:03:35;;;;;;;5.93;0.70;;;21.90;92.20;;;;;;5085596;28;20069;-70
2021/07/29 10:06:12;;;;;;;7.18;1.02;;;21.90;92.00;;;;;;5084875;28;20444;-71
2021/07/29 10:08:50;;;;;;;4.72;0.60;;;21.90;92.00;;;;;;5067663;28;20059;-71
2021/07/29 10:11:19;;;;;;;2.85;0.50;;;21.90;92.40;;;;;;5076956;28;20086;-71
2021/07/29 10:13:45;;;;;;;6.97;1.00;;;22.00;92.10;;;;;;5084293;28;20028;-71
2021/07/29 10:16:16;;;;;;;5.05;0.55;;;22.00;92.90;;;;;;5077181;28;20049;-71
2021/07/29 10:18:51;;;;;;;4.18;0.60;;;22.00;91.50;;;;;;5077123;28;20093;-71
2021/07/29 10:21:31;;;;;;;4.05;0.63;;;22.00;92.00;;;;;;5057002;28;20117;-72
2021/07/29 10:24:00;;;;;;;4.40;0.57;;;22.00;91.20;;;;;;5054565;28;20500;-71
2021/07/29 10:26:28;;;;;;;3.83;0.60;;;22.10;92.10;;;;;;5081345;28;20525;-71
2021/07/29 10:29:24;;;;;;;4.25;0.70;;;22.20;90.90;;;;;;5078894;28;20021;-71
2021/07/29 10:31:52;;;;;;;2.42;0.50;;;22.30;91.10;;;;;;5060356;28;20036;-72
2021/07/29 10:34:29;;;;;;;2.72;0.50;;;22.50;90.70;;;;;;5075129;28;20123;-71
2021/07/29 10:36:59;;;;;;;2.35;0.32;;;22.50;90.30;;;;;;5070898;28;20037;-77
2021/07/29 10:39:25;;;;;;;1.33;0.37;;;22.60;90.70;;;;;;5049621;28;20035;-72
2021/07/29 10:41:55;;;;;;;2.08;0.60;;;22.60;88.30;;;;;;5062589;28;20033;-72
2021/07/29 10:44:42;;;;;;;1.63;0.30;;;22.70;87.20;;;;;;5069797;28;20512;-72
2021/07/29 10:47:10;;;;;;;2.25;0.32;;;22.70;84.30;;;;;;5057585;28;20033;-72
2021/07/29 10:49:44;;;;;;;5.93;0.50;;;22.60;84.20;;;;;;5076688;28;20728;-71
2021/07/29 10:52:13;;;;;;;4.53;0.45;;;22.60;88.00;;;;;;5057904;28;20071;-71
2021/07/29 10:54:44;;;;;;;3.63;0.60;;;22.60;88.00;;;;;;5073693;28;20401;-71
2021/07/29 10:57:12;;;;;;;5.00;0.47;;;22.70;85.90;;;;;;5056789;28;20058;-71
2021/07/29 10:59:38;;;;;;;7.78;0.82;;;22.80;85.90;;;;;;5064460;28;20661;-71
2021/07/29 11:02:12;;;;;;;4.70;0.28;;;22.70;84.00;;;;;;5079874;28;20177;-71
2021/07/29 11:05:03;;;;;;;4.53;0.40;;;22.80;83.50;;;;;;5074881;28;20034;-71
2021/07/29 11:07:30;;;;;;;2.45;0.50;;;22.70;83.80;;;;;;5062773;28;20488;-71
2021/07/29 11:10:10;;;;;;;2.15;0.43;;;22.80;83.20;;;;;;5077380;28;20043;-71
2021/07/29 11:12:39;;;;;;;3.10;0.65;;;22.90;84.10;;;;;;5085696;28;20044;-70
2021/07/29 11:15:05;;;;;;;3.05;0.35;;;22.80;85.10;;;;;;5084581;28;20510;-69
2021/07/29 11:17:31;;;;;;;2.42;0.50;;;22.80;86.20;;;;;;5068404;28;20042;-70
2021/07/29 11:19:57;;;;;;;2.65;0.40;;;22.70;84.40;;;;;;5084459;28;20045;-70
2021/07/29 11:22:23;;;;;;;3.72;0.35;;;22.60;86.50;;;;;;5085757;28;20111;-70
2021/07/29 11:24:49;;;;;;;2.65;0.40;;;22.70;86.40;;;;;;5084457;28;20389;-70
2021/07/29 11:27:28;;;;;;;5.90;0.40;;;22.90;86.60;;;;;;5085925;28;20043;-70
2021/07/29 11:30:03;;;;;;;3.40;0.65;;;23.10;87.70;;;;;;5078916;28;20500;-70
2021/07/29 11:32:43;;;;;;;3.45;0.77;;;23.00;86.10;;;;;;5080589;28;20035;-69
2021/07/29 11:35:09;;;;;;;;;;;23.00;87.80;;;;;;5083452;28;20675;-70
2021/07/29 11:37:43;;;;;;;3.95;0.63;;;23.00;87.50;;;;;;5085430;28;19958;-70
2021/07/29 11:40:21;;;;;;;3.63;0.47;;;22.90;87.10;;;;;;5085123;28;20123;-69
2021/07/29 11:42:47;;;;;;;1.38;0.52;;;22.80;85.70;;;;;;5068498;28;20100;-69
2021/07/29 11:45:32;;;;;;;8.52;0.70;;;22.60;89.60;;;;;;5084206;28;20051;-69
2021/07/29 11:47:58;;;;;;;8.18;0.77;;;22.40;90.40;;;;;;5085693;28;20055;-70
2021/07/29 11:50:38;;;;;;;5.72;0.63;;;22.60;88.70;;;;;;5086519;28;20044;-70
2021/07/29 11:53:05;;;;;;;4.53;0.85;;;22.70;89.50;;;;;;5081224;28;20039;-69
2021/07/29 11:55:31;;;;;;;5.70;0.68;;;22.90;87.40;;;;;;5064752;28;20463;-70
2021/07/29 11:58:04;;;;;;;2.35;0.63;;;22.80;89.40;;;;;;5082185;28;20116;-72
2021/07/29 12:00:30;;;;;;;5.05;0.63;;;22.80;87.70;;;;;;5083051;28;20543;-69
2021/07/29 12:02:56;;;;;;;2.92;1.20;;;22.70;89.10;;;;;;5083940;28;20113;-69
2021/07/29 12:05:27;;;;;;;6.15;0.63;;;22.60;90.40;;;;;;5086637;28;20127;-69
2021/07/29 12:07:54;;;;;;;4.40;0.85;;;22.50;90.20;;;;;;5064606;28;20496;-70
2021/07/29 12:10:24;;;;;;;4.07;1.08;;;22.20;89.10;;;;;;5085939;28;20028;-69
2021/07/29 12:12:50;;;;;;;3.42;0.65;;;21.90;90.20;;;;;;5082900;28;20032;-69
2021/07/29 12:15:15;;;;;;;4.35;0.90;;;21.50;91.70;;;;;;5082169;28;20031;-69
2021/07/29 12:17:41;;;;;;;4.00;0.80;;;21.50;92.30;;;;;;5081673;28;20032;-69
2021/07/29 12:20:07;;;;;;;4.85;1.20;;;21.40;92.40;;;;;;5084901;28;20032;-69
2021/07/29 12:22:37;;;;;;;6.47;1.27;;;21.60;93.20;;;;;;5084048;28;20032;-69
2021/07/29 12:25:05;;;;;;;5.10;0.98;;;21.80;93.10;;;;;;5085535;28;20048;-69
2021/07/29 12:27:46;;;;;;;6.95;1.35;;;22.00;92.70;;;;;;5083743;28;20032;-69
2021/07/29 12:30:31;;;;;;;2.53;1.10;;;22.10;93.40;;;;;;5082924;28;20040;-69
2021/07/29 12:33:07;;;;;;;5.65;1.00;;;22.20;94.40;;;;;;5078182;28;20568;-70
2021/07/29 12:35:33;;;;;;;6.55;1.45;;;22.40;93.30;;;;;;5082373;28;20043;-69
2021/07/29 12:37:59;;;;;;;9.27;1.67;;;22.40;93.80;;;;;;5084417;28;20031;-69
2021/07/29 12:40:26;;;;;;;7.97;1.33;;;22.20;93.60;;;;;;5081650;28;20306;-69
2021/07/29 12:42:52;;;;;;;7.00;0.93;;;22.10;94.70;;;;;;5082997;28;20107;-69
2021/07/29 12:45:18;;;;;;;4.95;1.00;;;22.20;94.10;;;;;;5085655;28;20114;-69
2021/07/29 12:48:06;;;;;;;10.30;1.33;;;22.10;93.50;;;;;;5083431;28;20542;-69
2021/07/29 12:50:38;;;;;;;6.25;1.10;;;21.90;94.40;;;;;;5066337;28;20024;-70